Time;durP1;ratioP1;P1;durP2;ratioP2;P2;SDS_P1;SDS_P2;PMS_P1;PMS_P2;Temp;Humidity;BMP_temperature;BMP_pressure;BME280_temperature;BME280_humidity;BME280_pressure;Samples;Min_cycle;Max_cycle;Signal;HPM_P1;HPM_P2
2022/03/19 00:01:00;;;;;;;5.35;4.75;;;;;;;;;;4918389;29;20202;-75
2022/03/19 00:03:26;;;;;;;6.78;4.55;;;;;;;;;;4919018;29;20192;-76
2022/03/19 00:05:52;;;;;;;9.38;5.10;;;;;;;;;;4919174;29;20236;-75
2022/03/19 00:08:18;;;;;;;7.22;4.75;;;;;;;;;;4917936;29;20654;-76
2022/03/19 00:10:45;;;;;;;8.40;5.10;;;;;;;;;;4917591;29;20218;-78
2022/03/19 00:13:11;;;;;;;9.20;4.68;;;;;;;;;;4919066;29;20261;-77
2022/03/19 00:15:37;;;;;;;7.38;4.63;;;;;;;;;;4919022;29;20527;-76
2022/03/19 00:18:04;;;;;;;7.07;4.85;;;;;;;;;;4917313;29;20193;-77
2022/03/19 00:20:30;;;;;;;6.60;4.90;;;;;;;;;;4917100;29;20293;-76
2022/03/19 00:22:56;;;;;;;11.52;5.25;;;;;;;;;;4918702;29;20265;-78
2022/03/19 00:25:22;;;;;;;7.60;5.82;;;;;;;;;;4919105;29;20193;-77
2022/03/19 00:27:48;;;;;;;10.40;4.95;;;;;;;;;;4918924;29;20657;-75
2022/03/19 00:30:14;;;;;;;10.77;5.37;;;;;;;;;;4918277;29;20186;-76
2022/03/19 00:32:40;;;;;;;10.95;5.15;;;;;;;;;;4918454;29;20426;-76
2022/03/19 00:35:07;;;;;;;9.63;5.00;;;;;;;;;;4918532;29;20528;-75
2022/03/19 00:37:41;;;;;;;9.00;6.13;;;;;;;;;;4918700;29;20414;-76
2022/03/19 00:40:08;;;;;;;12.00;5.40;;;;;;;;;;4918668;29;20226;-76
2022/03/19 00:42:33;;;;;;;7.85;5.13;;;;;;;;;;4918240;29;20209;-76
2022/03/19 00:44:59;;;;;;;7.23;5.33;;;;;;;;;;4918467;29;20178;-75
2022/03/19 00:47:25;;;;;;;7.93;5.57;;;;;;;;;;4918588;29;20490;-76
2022/03/19 00:49:51;;;;;;;12.77;5.47;;;;;;;;;;4918265;29;20429;-75
2022/03/19 00:52:17;;;;;;;10.30;5.77;;;;;;;;;;4917854;29;20227;-75
2022/03/19 00:54:43;;;;;;;8.30;5.80;;;;;;;;;;4918114;29;20802;-75
2022/03/19 00:57:09;;;;;;;9.60;6.10;;;;;;;;;;4918294;29;20778;-75
2022/03/19 00:59:35;;;;;;;10.00;5.40;;;;;;;;;;4918439;29;20823;-75
2022/03/19 01:02:01;;;;;;;10.70;5.33;;;;;;;;;;4917533;29;20441;-75
2022/03/19 01:04:27;;;;;;;10.77;6.03;;;;;;;;;;4918197;29;20418;-74
2022/03/19 01:06:53;;;;;;;8.35;5.35;;;;;;;;;;4918146;29;20920;-76
2022/03/19 01:09:19;;;;;;;7.25;5.43;;;;;;;;;;4918100;29;20195;-77
2022/03/19 01:11:45;;;;;;;9.68;4.75;;;;;;;;;;4916802;29;20220;-77
2022/03/19 01:14:11;;;;;;;8.15;5.38;;;;;;;;;;4917957;29;20548;-77
2022/03/19 01:16:37;;;;;;;8.38;5.20;;;;;;;;;;4917656;29;20194;-75
2022/03/19 01:19:03;;;;;;;18.48;5.68;;;;;;;;;;4917697;29;20585;-75
2022/03/19 01:21:29;;;;;;;7.75;4.80;;;;;;;;;;4917412;29;20239;-76
2022/03/19 01:23:55;;;;;;;9.23;5.60;;;;;;;;;;4917653;29;20200;-75
2022/03/19 01:26:22;;;;;;;8.18;5.60;;;;;;;;;;4917965;29;20178;-75
2022/03/19 01:28:48;;;;;;;8.85;5.35;;;;;;;;;;4917816;29;20184;-76
2022/03/19 01:31:14;;;;;;;9.75;5.63;;;;;;;;;;4916964;29;20273;-76
2022/03/19 01:33:40;;;;;;;7.65;4.97;;;;;;;;;;4917626;29;20655;-77
2022/03/19 01:36:06;;;;;;;8.18;5.15;;;;;;;;;;4917638;29;20273;-77
2022/03/19 01:38:32;;;;;;;10.47;6.47;;;;;;;;;;4917589;29;20327;-76
2022/03/19 01:40:59;;;;;;;7.87;6.23;;;;;;;;;;4915915;29;20433;-75
2022/03/19 01:43:25;;;;;;;9.70;6.07;;;;;;;;;;4917418;29;20421;-75
2022/03/19 01:45:51;;;;;;;11.03;5.70;;;;;;;;;;4917075;29;20182;-76
2022/03/19 01:48:17;;;;;;;13.75;6.45;;;;;;;;;;4917763;29;20409;-76
2022/03/19 01:50:43;;;;;;;11.15;5.93;;;;;;;;;;4916918;29;20717;-75
2022/03/19 01:53:09;;;;;;;16.57;6.13;;;;;;;;;;4916868;29;20195;-76
2022/03/19 01:55:35;;;;;;;9.45;5.55;;;;;;;;;;4917088;29;20445;-78
2022/03/19 01:58:01;;;;;;;16.63;5.95;;;;;;;;;;4917264;29;20178;-76
2022/03/19 02:00:28;;;;;;;8.57;5.43;;;;;;;;;;4916954;29;20178;-75
2022/03/19 02:02:54;;;;;;;7.75;5.03;;;;;;;;;;4917264;29;20231;-76
2022/03/19 02:05:22;;;;;;;7.93;5.63;;;;;;;;;;4917115;29;20186;-77
2022/03/19 02:07:48;;;;;;;12.57;5.85;;;;;;;;;;4917017;29;20208;-76
2022/03/19 02:10:15;;;;;;;11.32;5.60;;;;;;;;;;4916730;29;20185;-76
2022/03/19 02:12:42;;;;;;;8.80;6.07;;;;;;;;;;4917461;29;20196;-77
2022/03/19 02:15:10;;;;;;;9.95;5.43;;;;;;;;;;4916981;29;20261;-76
2022/03/19 02:17:36;;;;;;;9.90;5.30;;;;;;;;;;4916937;29;20176;-76
2022/03/19 02:20:03;;;;;;;15.60;6.13;;;;;;;;;;4917045;29;20309;-76
2022/03/19 02:22:29;;;;;;;10.98;5.25;;;;;;;;;;4916179;29;20472;-75
2022/03/19 02:27:41;;;;;;;12.75;5.07;;;;;;;;;;4917155;29;20202;-77
2022/03/19 02:30:10;;;;;;;9.27;5.75;;;;;;;;;;4916851;29;20505;-76
2022/03/19 02:32:36;;;;;;;14.43;5.60;;;;;;;;;;4915325;29;20304;-76
2022/03/19 02:35:02;;;;;;;8.23;5.75;;;;;;;;;;4916578;29;20192;-76
2022/03/19 02:37:42;;;;;;;15.52;5.85;;;;;;;;;;4915196;29;20188;-75
2022/03/19 02:40:10;;;;;;;9.93;5.57;;;;;;;;;;4916975;29;20183;-75
2022/03/19 02:42:36;;;;;;;9.00;5.60;;;;;;;;;;4916855;29;20280;-75
2022/03/19 02:45:02;;;;;;;10.20;5.43;;;;;;;;;;4915700;29;20296;-76
2022/03/19 02:47:28;;;;;;;9.50;5.93;;;;;;;;;;4916895;29;20409;-76
2022/03/19 02:49:55;;;;;;;17.10;5.80;;;;;;;;;;4916544;29;20204;-75
2022/03/19 02:52:21;;;;;;;8.15;5.57;;;;;;;;;;4916220;29;20515;-77
2022/03/19 02:54:47;;;;;;;9.57;5.50;;;;;;;;;;4916741;29;20208;-76
2022/03/19 02:57:13;;;;;;;7.45;5.57;;;;;;;;;;4916621;29;20494;-75
2022/03/19 02:59:39;;;;;;;9.17;5.50;;;;;;;;;;4916455;29;20265;-77
2022/03/19 03:02:07;;;;;;;6.00;4.85;;;;;;;;;;4916032;29;20460;-76
2022/03/19 03:04:34;;;;;;;8.32;5.68;;;;;;;;;;4916796;29;20180;-75
2022/03/19 03:07:01;;;;;;;12.35;5.75;;;;;;;;;;4915455;29;20196;-76
2022/03/19 03:09:28;;;;;;;6.85;5.30;;;;;;;;;;4916521;29;20182;-76
2022/03/19 03:11:54;;;;;;;11.32;5.30;;;;;;;;;;4914723;29;20241;-75
2022/03/19 03:14:21;;;;;;;7.93;4.63;;;;;;;;;;4916524;29;20173;-76
2022/03/19 03:16:47;;;;;;;8.30;5.88;;;;;;;;;;4916247;29;20170;-77
2022/03/19 03:19:14;;;;;;;14.77;5.78;;;;;;;;;;4916407;29;20265;-75
2022/03/19 03:21:40;;;;;;;11.93;6.40;;;;;;;;;;4916055;29;20547;-77
2022/03/19 03:24:06;;;;;;;8.13;4.95;;;;;;;;;;4914980;29;20209;-77
2022/03/19 03:26:32;;;;;;;9.50;5.25;;;;;;;;;;4916468;29;20267;-77
2022/03/19 03:28:58;;;;;;;8.43;5.05;;;;;;;;;;4915051;29;20563;-76
2022/03/19 03:31:27;;;;;;;7.10;4.93;;;;;;;;;;4915546;29;20219;-75
2022/03/19 03:33:54;;;;;;;10.90;5.00;;;;;;;;;;4916263;29;20180;-75
2022/03/19 03:36:20;;;;;;;9.77;5.10;;;;;;;;;;4919722;29;20171;-75
2022/03/19 03:38:46;;;;;;;10.38;5.07;;;;;;;;;;4919776;29;20239;-77
2022/03/19 03:41:12;;;;;;;7.95;5.82;;;;;;;;;;4919239;29;20595;-75
2022/03/19 03:43:38;;;;;;;8.05;5.47;;;;;;;;;;4919638;29;20185;-75
2022/03/19 03:46:04;;;;;;;8.70;5.80;;;;;;;;;;4919090;29;20643;-77
2022/03/19 03:48:30;;;;;;;9.98;5.40;;;;;;;;;;4919539;29;20412;-75
2022/03/19 03:50:57;;;;;;;11.18;5.43;;;;;;;;;;4919084;29;20221;-76
2022/03/19 03:53:24;;;;;;;8.65;4.90;;;;;;;;;;4919567;29;20176;-77
2022/03/19 03:55:49;;;;;;;9.65;5.85;;;;;;;;;;4919664;29;20264;-76
2022/03/19 03:58:16;;;;;;;7.97;4.73;;;;;;;;;;4918149;29;20217;-74
2022/03/19 04:00:42;;;;;;;9.65;5.47;;;;;;;;;;4900251;29;20788;-76
2022/03/19 04:03:08;;;;;;;9.93;5.50;;;;;;;;;;4900569;29;20196;-76
2022/03/19 04:05:34;;;;;;;10.13;4.90;;;;;;;;;;4900382;29;20189;-75
2022/03/19 04:08:01;;;;;;;11.95;6.57;;;;;;;;;;4900356;29;20253;-76
2022/03/19 04:10:27;;;;;;;10.77;6.15;;;;;;;;;;4899825;29;20189;-76
2022/03/19 04:12:53;;;;;;;9.50;5.25;;;;;;;;;;4904806;29;20189;-76
2022/03/19 04:15:19;;;;;;;12.68;6.20;;;;;;;;;;4918988;29;20177;-76
2022/03/19 04:17:45;;;;;;;9.23;5.72;;;;;;;;;;4919101;29;20183;-76
2022/03/19 04:20:11;;;;;;;7.72;4.85;;;;;;;;;;4918486;29;20186;-74
2022/03/19 04:22:41;;;;;;;7.15;5.15;;;;;;;;;;4918790;29;20259;-77
2022/03/19 04:25:12;;;;;;;7.30;5.18;;;;;;;;;;4917557;29;20288;-76
2022/03/19 04:27:39;;;;;;;7.60;5.05;;;;;;;;;;4918720;29;20188;-76
2022/03/19 04:30:05;;;;;;;10.02;5.22;;;;;;;;;;4918586;29;20275;-75
2022/03/19 04:32:31;;;;;;;5.57;4.53;;;;;;;;;;4918350;29;20718;-75
2022/03/19 04:34:57;;;;;;;7.13;5.18;;;;;;;;;;4918389;29;20676;-75
2022/03/19 04:37:23;;;;;;;7.82;5.82;;;;;;;;;;4918693;29;20191;-76
2022/03/19 04:39:49;;;;;;;7.45;4.90;;;;;;;;;;4918594;29;20185;-74
2022/03/19 04:42:16;;;;;;;7.30;5.37;;;;;;;;;;4918201;29;20213;-76
2022/03/19 04:44:42;;;;;;;7.88;5.85;;;;;;;;;;4917325;29;20432;-76
2022/03/19 04:47:08;;;;;;;10.30;5.97;;;;;;;;;;4918618;29;20195;-76
2022/03/19 04:49:34;;;;;;;10.83;5.27;;;;;;;;;;4918286;29;20428;-75
2022/03/19 04:52:00;;;;;;;7.63;4.97;;;;;;;;;;4918037;29;21002;-75
2022/03/19 04:54:26;;;;;;;7.82;5.20;;;;;;;;;;4917179;29;20419;-76
2022/03/19 04:56:52;;;;;;;7.40;4.87;;;;;;;;;;4918256;29;20551;-75
2022/03/19 04:59:18;;;;;;;13.40;6.10;;;;;;;;;;4918474;29;20460;-76
2022/03/19 05:01:44;;;;;;;11.00;6.13;;;;;;;;;;4917902;29;20531;-77
2022/03/19 05:04:10;;;;;;;11.30;5.93;;;;;;;;;;4917863;29;20234;-75
2022/03/19 05:06:36;;;;;;;15.38;4.75;;;;;;;;;;4916739;29;20435;-76
2022/03/19 05:11:47;;;;;;;10.68;4.90;;;;;;;;;;4917690;29;20272;-76
2022/03/19 05:14:13;;;;;;;7.77;5.70;;;;;;;;;;4917955;29;20611;-75
2022/03/19 05:16:39;;;;;;;9.87;5.17;;;;;;;;;;4917544;29;20447;-76
2022/03/19 05:19:06;;;;;;;10.13;4.90;;;;;;;;;;4917838;29;20856;-76
2022/03/19 05:21:32;;;;;;;8.65;5.07;;;;;;;;;;4917446;29;20287;-77
2022/03/19 05:23:58;;;;;;;9.80;4.60;;;;;;;;;;4917648;29;20283;-76
2022/03/19 05:26:24;;;;;;;9.90;5.38;;;;;;;;;;4917711;29;20187;-74
2022/03/19 05:28:50;;;;;;;8.77;4.70;;;;;;;;;;4917472;29;20254;-76
2022/03/19 05:31:16;;;;;;;7.30;5.05;;;;;;;;;;4916795;29;20219;-77
2022/03/19 05:36:27;;;;;;;6.15;4.38;;;;;;;;;;4918209;29;20203;-75
2022/03/19 05:38:53;;;;;;;10.70;5.60;;;;;;;;;;4916365;29;20572;-74
2022/03/19 05:41:19;;;;;;;11.68;5.70;;;;;;;;;;4917129;29;20207;-76
2022/03/19 05:43:45;;;;;;;13.32;5.68;;;;;;;;;;4917673;29;20192;-75
2022/03/19 05:46:11;;;;;;;8.63;5.03;;;;;;;;;;4917329;29;20218;-74
2022/03/19 05:48:37;;;;;;;7.37;5.27;;;;;;;;;;4916417;29;20185;-76
2022/03/19 05:51:05;;;;;;;8.82;5.40;;;;;;;;;;4916826;29;20468;-75
2022/03/19 05:53:30;;;;;;;9.63;5.65;;;;;;;;;;4917304;29;20203;-75
2022/03/19 05:55:56;;;;;;;7.90;5.23;;;;;;;;;;4917273;29;20611;-76
2022/03/19 05:58:22;;;;;;;5.50;5.00;;;;;;;;;;4916775;29;20422;-77
2022/03/19 06:00:48;;;;;;;7.80;5.37;;;;;;;;;;4916570;29;20468;-75
2022/03/19 06:03:14;;;;;;;7.03;5.30;;;;;;;;;;4917112;29;20428;-76
2022/03/19 06:05:40;;;;;;;11.15;5.32;;;;;;;;;;4917043;29;20823;-75
2022/03/19 06:08:06;;;;;;;6.32;4.47;;;;;;;;;;4915971;29;20661;-76
2022/03/19 06:10:35;;;;;;;7.40;4.60;;;;;;;;;;4916770;29;20203;-75
2022/03/19 06:13:02;;;;;;;8.75;5.20;;;;;;;;;;4917067;29;20931;-76
2022/03/19 06:15:28;;;;;;;8.00;5.50;;;;;;;;;;4916958;29;20211;-76
2022/03/19 06:17:54;;;;;;;9.13;5.28;;;;;;;;;;4915822;29;20625;-75
2022/03/19 06:20:22;;;;;;;7.22;5.15;;;;;;;;;;4915204;29;20270;-75
2022/03/19 06:22:49;;;;;;;7.60;5.72;;;;;;;;;;4916858;29;20227;-76
2022/03/19 06:25:15;;;;;;;8.30;5.25;;;;;;;;;;4916839;29;20522;-77
2022/03/19 06:27:40;;;;;;;9.38;5.55;;;;;;;;;;4916743;29;20240;-74
2022/03/19 06:30:08;;;;;;;6.37;5.00;;;;;;;;;;4916838;29;20217;-76
2022/03/19 06:32:36;;;;;;;8.88;5.30;;;;;;;;;;4916646;29;20480;-75
2022/03/19 06:35:02;;;;;;;12.05;6.78;;;;;;;;;;4916615;29;20358;-76
2022/03/19 06:37:29;;;;;;;11.50;5.25;;;;;;;;;;4916862;29;20180;-75
2022/03/19 06:39:57;;;;;;;8.93;6.50;;;;;;;;;;4916931;29;20180;-75
2022/03/19 06:42:23;;;;;;;7.53;5.88;;;;;;;;;;4916547;29;20255;-78
2022/03/19 06:44:49;;;;;;;10.38;5.80;;;;;;;;;;4916794;29;20588;-75
2022/03/19 06:47:15;;;;;;;10.95;6.90;;;;;;;;;;4916608;29;20183;-76
2022/03/19 06:49:41;;;;;;;9.50;6.10;;;;;;;;;;4916704;29;20193;-76
2022/03/19 06:52:08;;;;;;;10.75;6.03;;;;;;;;;;4915980;29;20212;-75
2022/03/19 06:54:34;;;;;;;10.63;6.90;;;;;;;;;;4916694;29;20267;-76
2022/03/19 06:57:00;;;;;;;10.30;7.05;;;;;;;;;;4916738;29;20232;-76
2022/03/19 06:59:26;;;;;;;8.80;6.63;;;;;;;;;;4915289;29;20609;-76
2022/03/19 07:01:52;;;;;;;14.80;7.28;;;;;;;;;;4916199;29;20452;-78
2022/03/19 07:04:18;;;;;;;9.13;7.17;;;;;;;;;;4916637;29;20190;-76
2022/03/19 07:06:43;;;;;;;10.60;6.10;;;;;;;;;;4916095;29;20769;-76
2022/03/19 07:09:10;;;;;;;14.37;7.60;;;;;;;;;;4917026;29;20425;-74
2022/03/19 07:11:36;;;;;;;12.07;7.57;;;;;;;;;;4918376;29;20488;-76
2022/03/19 07:14:03;;;;;;;10.48;6.82;;;;;;;;;;4919068;29;20544;-77
2022/03/19 07:16:29;;;;;;;9.27;6.63;;;;;;;;;;4920151;29;20190;-77
2022/03/19 07:18:55;;;;;;;12.95;7.03;;;;;;;;;;4919823;29;20253;-74
2022/03/19 07:21:22;;;;;;;11.63;7.95;;;;;;;;;;4918298;29;20219;-75
2022/03/19 07:23:48;;;;;;;15.63;6.43;;;;;;;;;;4919770;29;20254;-75
2022/03/19 07:26:14;;;;;;;11.37;6.70;;;;;;;;;;4902885;29;20279;-75
2022/03/19 07:28:40;;;;;;;12.30;7.00;;;;;;;;;;4919789;29;20417;-74
2022/03/19 07:31:06;;;;;;;10.50;6.68;;;;;;;;;;4919312;29;20472;-75
2022/03/19 07:33:34;;;;;;;7.72;5.78;;;;;;;;;;4919502;29;20185;-74
2022/03/19 07:36:01;;;;;;;10.77;6.07;;;;;;;;;;4919730;29;20181;-77
2022/03/19 07:38:27;;;;;;;13.18;6.97;;;;;;;;;;4919825;29;20262;-75
2022/03/19 07:43:38;;;;;;;9.55;5.60;;;;;;;;;;4919778;29;20196;-75
2022/03/19 07:46:04;;;;;;;9.23;5.28;;;;;;;;;;4919632;29;20182;-75
2022/03/19 07:48:30;;;;;;;7.65;5.22;;;;;;;;;;4919331;29;20587;-75
2022/03/19 07:50:56;;;;;;;9.00;4.90;;;;;;;;;;4917766;29;20301;-75
2022/03/19 07:53:22;;;;;;;10.43;4.72;;;;;;;;;;4919458;29;20784;-75
2022/03/19 07:55:50;;;;;;;8.73;4.50;;;;;;;;;;4919145;29;20702;-76
2022/03/19 07:58:17;;;;;;;10.50;4.90;;;;;;;;;;4919386;29;20177;-76
2022/03/19 08:00:43;;;;;;;7.60;4.38;;;;;;;;;;4918909;29;20202;-75
2022/03/19 08:03:09;;;;;;;13.85;5.57;;;;;;;;;;4917557;29;20289;-76
2022/03/19 08:05:35;;;;;;;6.47;4.20;;;;;;;;;;4913492;29;20694;-76
2022/03/19 08:08:01;;;;;;;10.87;4.40;;;;;;;;;;4903323;29;20423;-75
2022/03/19 08:10:27;;;;;;;5.75;4.18;;;;;;;;;;4899711;29;20412;-75
2022/03/19 08:13:00;;;;;;;8.10;4.80;;;;;;;;;;4900264;29;20191;-74
2022/03/19 08:15:26;;;;;;;6.32;4.32;;;;;;;;;;4903641;29;20950;-75
2022/03/19 08:17:52;;;;;;;5.03;3.78;;;;;;;;;;4919158;29;20189;-77
2022/03/19 08:20:18;;;;;;;5.90;4.50;;;;;;;;;;4918039;29;20194;-75
2022/03/19 08:22:45;;;;;;;8.93;4.72;;;;;;;;;;4918718;29;20442;-75
2022/03/19 08:25:11;;;;;;;8.35;4.20;;;;;;;;;;4918868;29;20186;-75
2022/03/19 08:27:37;;;;;;;9.10;4.60;;;;;;;;;;4918862;29;20182;-75
2022/03/19 08:30:03;;;;;;;7.75;4.78;;;;;;;;;;4918222;29;20550;-76
2022/03/19 08:32:30;;;;;;;6.70;4.25;;;;;;;;;;4918337;29;20218;-74
2022/03/19 08:34:56;;;;;;;6.70;3.67;;;;;;;;;;4918370;29;20190;-78
2022/03/19 08:37:22;;;;;;;6.15;4.20;;;;;;;;;;4918625;29;20270;-76
2022/03/19 08:42:33;;;;;;;6.40;3.35;;;;;;;;;;4918626;29;20442;-76
2022/03/19 08:44:59;;;;;;;7.75;3.65;;;;;;;;;;4918520;29;20191;-76
2022/03/19 08:47:25;;;;;;;6.60;3.70;;;;;;;;;;4918472;29;20583;-76
2022/03/19 08:49:51;;;;;;;12.45;3.97;;;;;;;;;;4914426;29;20563;-76
2022/03/19 08:52:17;;;;;;;9.03;4.07;;;;;;;;;;4898899;29;20221;-76
2022/03/19 08:54:43;;;;;;;7.53;4.20;;;;;;;;;;4899711;29;20417;-76
2022/03/19 08:57:10;;;;;;;7.47;4.50;;;;;;;;;;4899587;29;20412;-76
2022/03/19 08:59:36;;;;;;;6.25;3.70;;;;;;;;;;4899324;29;20877;-77
2022/03/19 09:02:02;;;;;;;6.38;4.00;;;;;;;;;;4897790;29;20212;-76
2022/03/19 09:04:28;;;;;;;8.53;4.20;;;;;;;;;;4912628;29;20243;-76
2022/03/19 09:06:54;;;;;;;5.67;3.33;;;;;;;;;;4932737;29;20433;-76
2022/03/19 09:09:20;;;;;;;7.60;3.43;;;;;;;;;;4932758;29;20433;-75
2022/03/19 09:11:48;;;;;;;5.40;3.43;;;;;;;;;;4917579;29;20477;-74
2022/03/19 09:14:15;;;;;;;5.77;3.47;;;;;;;;;;4917805;29;20811;-77
2022/03/19 09:16:41;;;;;;;8.03;3.97;;;;;;;;;;4917644;29;20441;-74
2022/03/19 09:19:07;;;;;;;4.70;3.40;;;;;;;;;;4900510;29;20402;-76
2022/03/19 09:21:37;;;;;;;6.83;3.60;;;;;;;;;;4898693;29;20440;-77
2022/03/19 09:24:04;;;;;;;6.60;3.83;;;;;;;;;;4882166;29;20496;-76
2022/03/19 09:26:30;;;;;;;4.47;3.27;;;;;;;;;;4898583;29;20412;-75
2022/03/19 09:28:56;;;;;;;6.70;3.27;;;;;;;;;;4898643;29;20454;-76
2022/03/19 09:31:22;;;;;;;8.40;3.33;;;;;;;;;;4910304;29;20504;-76
2022/03/19 09:33:48;;;;;;;9.30;3.37;;;;;;;;;;4905035;29;20402;-76
2022/03/19 09:36:15;;;;;;;5.17;3.40;;;;;;;;;;4898733;29;20393;-75
2022/03/19 09:38:41;;;;;;;6.50;3.20;;;;;;;;;;4897337;29;20398;-75
2022/03/19 09:41:07;;;;;;;9.07;3.40;;;;;;;;;;4898131;29;20882;-75
2022/03/19 09:43:34;;;;;;;6.83;3.00;;;;;;;;;;4898718;29;20443;-76
2022/03/19 09:46:00;;;;;;;6.43;3.60;;;;;;;;;;4904130;29;20764;-74
2022/03/19 09:48:26;;;;;;;5.07;3.30;;;;;;;;;;4917731;29;20404;-76
2022/03/19 09:50:54;;;;;;;8.03;4.00;;;;;;;;;;4916816;29;20474;-76
2022/03/19 09:53:20;;;;;;;8.03;3.63;;;;;;;;;;4917245;29;20462;-75
2022/03/19 09:55:47;;;;;;;12.23;4.10;;;;;;;;;;4931427;29;20451;-75
2022/03/19 09:58:15;;;;;;;6.93;3.97;;;;;;;;;;4917373;29;20803;-76
2022/03/19 10:00:42;;;;;;;6.40;2.70;;;;;;;;;;4905823;29;20451;-74
2022/03/19 10:03:09;;;;;;;9.80;4.00;;;;;;;;;;4898353;29;20413;-76
2022/03/19 10:08:43;;;;;;;7.07;3.70;;;;;;;;;;4897080;29;20424;-76
2022/03/19 10:11:13;;;;;;;4.80;3.17;;;;;;;;;;4897755;29;20598;-74
2022/03/19 10:13:40;;;;;;;8.13;3.50;;;;;;;;;;4900400;29;20402;-76
2022/03/19 10:16:06;;;;;;;5.43;3.13;;;;;;;;;;4917018;29;20405;-75
2022/03/19 10:18:32;;;;;;;6.07;3.30;;;;;;;;;;4916913;29;20954;-76
2022/03/19 10:21:17;;;;;;;5.27;3.80;;;;;;;;;;4916434;29;20428;-74
2022/03/19 10:23:43;;;;;;;6.77;3.20;;;;;;;;;;4931442;29;20498;-74
2022/03/19 10:26:22;;;;;;;4.70;3.00;;;;;;;;;;4917005;29;20389;-76
2022/03/19 10:28:55;;;;;;;4.33;2.63;;;;;;;;;;4905262;29;20435;-75
2022/03/19 10:31:36;;;;;;;4.50;3.47;;;;;;;;;;4897548;29;20482;-76
2022/03/19 10:34:03;;;;;;;3.73;2.53;;;;;;;;;;4898721;29;20570;-75
2022/03/19 10:36:37;;;;;;;5.00;2.90;;;;;;;;;;4897978;29;20420;-76
2022/03/19 10:39:21;;;;;;;3.73;2.53;;;;;;;;;;4897780;29;20532;-76
2022/03/19 10:41:47;;;;;;;10.60;2.80;;;;;;;;;;4896302;29;20453;-76
2022/03/19 10:44:16;;;;;;;6.23;3.00;;;;;;;;;;4900187;29;20424;-75
2022/03/19 10:46:48;;;;;;;7.20;2.70;;;;;;;;;;4901662;29;20419;-77
2022/03/19 10:49:15;;;;;;;3.60;2.77;;;;;;;;;;4902697;29;20439;-74
2022/03/19 10:51:43;;;;;;;4.13;2.50;;;;;;;;;;4901115;29;20468;-77
2022/03/19 10:54:11;;;;;;;3.80;2.03;;;;;;;;;;4901428;29;20560;-76
2022/03/19 10:56:38;;;;;;;4.20;2.80;;;;;;;;;;4901649;29;20404;-76
2022/03/19 10:59:03;;;;;;;4.10;2.90;;;;;;;;;;4901676;29;20426;-77
2022/03/19 11:01:30;;;;;;;9.63;2.30;;;;;;;;;;4901001;29;20444;-76
2022/03/19 11:03:56;;;;;;;5.67;2.67;;;;;;;;;;4917247;29;20438;-76
2022/03/19 11:06:23;;;;;;;4.43;2.20;;;;;;;;;;4920179;29;20505;-75
2022/03/19 11:08:51;;;;;;;4.93;2.37;;;;;;;;;;4924625;29;20430;-78
2022/03/19 11:11:18;;;;;;;4.20;2.47;;;;;;;;;;4919592;29;20478;-77
2022/03/19 11:13:49;;;;;;;3.63;2.30;;;;;;;;;;4920041;29;20450;-76
2022/03/19 11:16:15;;;;;;;3.07;2.13;;;;;;;;;;4918496;29;20808;-76
2022/03/19 11:18:43;;;;;;;3.77;2.53;;;;;;;;;;4919926;29;20497;-77
2022/03/19 11:21:09;;;;;;;2.20;2.00;;;;;;;;;;4919521;29;20466;-74
2022/03/19 11:23:39;;;;;;;5.03;3.00;;;;;;;;;;4919765;29;20466;-76
2022/03/19 11:26:06;;;;;;;4.17;2.60;;;;;;;;;;4919762;29;20470;-75
2022/03/19 11:28:34;;;;;;;2.67;2.30;;;;;;;;;;4934405;29;20429;-75
2022/03/19 11:31:00;;;;;;;3.30;2.27;;;;;;;;;;4918555;29;20474;-76
2022/03/19 11:33:27;;;;;;;3.83;2.33;;;;;;;;;;4919743;29;20838;-77
2022/03/19 11:36:00;;;;;;;3.03;1.80;;;;;;;;;;4919778;29;20908;-77
2022/03/19 11:38:26;;;;;;;4.83;2.43;;;;;;;;;;4919930;29;20406;-77
2022/03/19 11:40:56;;;;;;;4.90;2.70;;;;;;;;;;4919239;29;20537;-78
2022/03/19 11:43:26;;;;;;;4.80;2.20;;;;;;;;;;4919578;29;20473;-77
2022/03/19 11:46:03;;;;;;;5.77;2.90;;;;;;;;;;4917944;29;20442;-75
2022/03/19 11:48:38;;;;;;;5.20;1.93;;;;;;;;;;4919627;29;20779;-75
2022/03/19 11:51:34;;;;;;;3.70;1.93;;;;;;;;;;4918980;29;20564;-75
2022/03/19 11:54:00;;;;;;;2.07;1.30;;;;;;;;;;4919042;29;20415;-77
2022/03/19 11:56:28;;;;;;;2.73;1.63;;;;;;;;;;4918635;29;20390;-76
2022/03/19 11:58:54;;;;;;;1.60;1.30;;;;;;;;;;4914194;29;20843;-76
2022/03/19 12:01:46;;;;;;;4.33;1.50;;;;;;;;;;4898950;29;20502;-76
2022/03/19 12:04:12;;;;;;;5.33;1.10;;;;;;;;;;4900234;29;20486;-76
2022/03/19 12:06:40;;;;;;;1.40;1.10;;;;;;;;;;4898892;29;20915;-75
2022/03/19 12:09:07;;;;;;;3.07;1.83;;;;;;;;;;4900412;29;20416;-76
2022/03/19 12:11:33;;;;;;;3.50;1.33;;;;;;;;;;4898588;29;20485;-76
2022/03/19 12:13:59;;;;;;;3.50;1.37;;;;;;;;;;4901228;29;20467;-76
2022/03/19 12:16:41;;;;;;;3.03;1.40;;;;;;;;;;4900250;29;20452;-77
2022/03/19 12:19:08;;;;;;;2.07;1.23;;;;;;;;;;4900135;29;20439;-75
2022/03/19 12:21:35;;;;;;;3.40;1.60;;;;;;;;;;4899681;29;20492;-77
2022/03/19 12:24:01;;;;;;;3.17;1.43;;;;;;;;;;4899536;29;20783;-76
2022/03/19 12:26:35;;;;;;;1.67;1.17;;;;;;;;;;4900636;29;20416;-75
2022/03/19 12:29:03;;;;;;;1.50;1.10;;;;;;;;;;4918493;29;20380;-76
2022/03/19 12:31:33;;;;;;;3.57;1.30;;;;;;;;;;4918178;29;20888;-77
2022/03/19 12:33:59;;;;;;;2.00;0.93;;;;;;;;;;4918285;29;20410;-75
2022/03/19 12:36:25;;;;;;;2.07;1.23;;;;;;;;;;4931759;29;20890;-75
2022/03/19 12:38:52;;;;;;;1.63;1.13;;;;;;;;;;4918637;29;20450;-76
2022/03/19 12:41:31;;;;;;;2.13;1.23;;;;;;;;;;4918343;29;20442;-76
2022/03/19 12:43:58;;;;;;;2.27;1.30;;;;;;;;;;4918694;29;20908;-76
2022/03/19 12:46:29;;;;;;;3.20;1.30;;;;;;;;;;4933278;29;20397;-78
2022/03/19 12:49:08;;;;;;;2.67;1.37;;;;;;;;;;4914033;29;20427;-76
2022/03/19 12:51:36;;;;;;;2.33;1.10;;;;;;;;;;4907018;29;20471;-77
2022/03/19 12:54:15;;;;;;;2.83;1.40;;;;;;;;;;4899253;29;20416;-76
2022/03/19 12:56:41;;;;;;;3.80;1.50;;;;;;;;;;4898248;29;20431;-75
2022/03/19 12:59:07;;;;;;;1.67;1.00;;;;;;;;;;4898221;29;20917;-75
2022/03/19 13:01:34;;;;;;;4.37;0.90;;;;;;;;;;4899071;29;20437;-75
2022/03/19 13:04:01;;;;;;;2.57;1.30;;;;;;;;;;4899291;29;20427;-77
2022/03/19 13:06:36;;;;;;;2.60;1.33;;;;;;;;;;4900281;29;21165;-75
2022/03/19 13:09:02;;;;;;;2.73;1.10;;;;;;;;;;4899373;29;20419;-76
2022/03/19 13:11:28;;;;;;;1.00;0.90;;;;;;;;;;4898715;29;20541;-75
2022/03/19 13:13:55;;;;;;;3.57;1.27;;;;;;;;;;4899190;29;20440;-76
2022/03/19 13:16:30;;;;;;;1.00;0.87;;;;;;;;;;4898858;29;20447;-75
2022/03/19 13:18:57;;;;;;;3.03;1.00;;;;;;;;;;4900166;29;20422;-76
2022/03/19 13:21:23;;;;;;;1.53;0.73;;;;;;;;;;4917478;29;20434;-77
2022/03/19 13:23:49;;;;;;;3.07;1.00;;;;;;;;;;4917740;29;20493;-76
2022/03/19 13:26:18;;;;;;;3.03;1.23;;;;;;;;;;4917654;29;20415;-75
2022/03/19 13:29:00;;;;;;;2.67;1.53;;;;;;;;;;4917739;29;20421;-76
2022/03/19 13:31:26;;;;;;;3.27;0.80;;;;;;;;;;4917260;29;20494;-77
2022/03/19 13:33:52;;;;;;;2.10;0.97;;;;;;;;;;4916948;29;20438;-77
2022/03/19 13:36:19;;;;;;;2.20;0.90;;;;;;;;;;4917457;29;20415;-77
2022/03/19 13:38:45;;;;;;;1.60;0.80;;;;;;;;;;4917629;29;20465;-75
2022/03/19 13:41:18;;;;;;;1.90;1.07;;;;;;;;;;4917097;29;20725;-75
2022/03/19 13:43:45;;;;;;;2.27;1.00;;;;;;;;;;4917409;29;20430;-77
2022/03/19 13:46:12;;;;;;;2.13;0.80;;;;;;;;;;4917387;29;20404;-76
2022/03/19 13:48:38;;;;;;;1.87;0.80;;;;;;;;;;4902693;29;20525;-75
2022/03/19 13:51:04;;;;;;;1.80;1.00;;;;;;;;;;4898145;29;20475;-76
2022/03/19 13:53:41;;;;;;;0.97;0.63;;;;;;;;;;4898514;29;20412;-77
2022/03/19 13:56:07;;;;;;;2.10;1.10;;;;;;;;;;4905951;29;20431;-76
2022/03/19 13:58:33;;;;;;;2.27;1.00;;;;;;;;;;4917388;29;20398;-75
2022/03/19 14:00:59;;;;;;;1.00;0.90;;;;;;;;;;4930013;29;20462;-77
2022/03/19 14:03:25;;;;;;;2.10;0.87;;;;;;;;;;4898527;29;20410;-76
2022/03/19 14:05:53;;;;;;;5.23;0.90;;;;;;;;;;4897137;29;20390;-77
2022/03/19 14:08:21;;;;;;;2.07;0.93;;;;;;;;;;4898157;29;20452;-77
2022/03/19 14:10:47;;;;;;;1.37;0.60;;;;;;;;;;4896493;29;20452;-77
2022/03/19 14:13:18;;;;;;;2.43;1.10;;;;;;;;;;4898218;29;20389;-77
2022/03/19 14:15:53;;;;;;;2.10;1.17;;;;;;;;;;4898812;29;20390;-76
2022/03/19 14:18:22;;;;;;;1.80;0.80;;;;;;;;;;4897847;29;20681;-76
2022/03/19 14:20:49;;;;;;;2.27;1.00;;;;;;;;;;4897670;29;20438;-77
2022/03/19 14:23:16;;;;;;;2.30;1.20;;;;;;;;;;4898046;29;20446;-74
2022/03/19 14:25:42;;;;;;;3.57;0.83;;;;;;;;;;4898090;29;20387;-77
2022/03/19 14:28:14;;;;;;;2.97;1.00;;;;;;;;;;4897967;29;20913;-77
2022/03/19 14:30:41;;;;;;;1.60;0.87;;;;;;;;;;4911368;29;20858;-78
2022/03/19 14:33:08;;;;;;;1.57;0.87;;;;;;;;;;4904861;29;20466;-77
2022/03/19 14:35:44;;;;;;;1.27;1.00;;;;;;;;;;4899250;29;20439;-80
2022/03/19 14:38:11;;;;;;;1.67;0.80;;;;;;;;;;4899023;29;20497;-80
2022/03/19 14:40:37;;;;;;;2.03;0.80;;;;;;;;;;4897397;29;20910;-79
2022/03/19 14:43:03;;;;;;;1.00;0.80;;;;;;;;;;4897830;29;20451;-79
2022/03/19 14:45:30;;;;;;;4.67;1.07;;;;;;;;;;4897993;29;20860;-77
2022/03/19 14:47:55;;;;;;;1.10;0.80;;;;;;;;;;4898198;29;20485;-79
2022/03/19 14:50:21;;;;;;;2.97;0.87;;;;;;;;;;4897622;29;20502;-78
2022/03/19 14:52:47;;;;;;;5.67;1.10;;;;;;;;;;4897641;29;20479;-79
2022/03/19 14:55:14;;;;;;;2.30;1.27;;;;;;;;;;4897574;29;20434;-78
2022/03/19 14:57:40;;;;;;;1.10;0.70;;;;;;;;;;4897555;29;20467;-77